createdAt,value
2023-10-11T00:01:48.051Z,3.13
2023-10-11T00:04:50.942Z,1.85
2023-10-11T00:07:58.806Z,5.38
2023-10-11T00:11:02.343Z,1.65
2023-10-11T00:14:05.820Z,1.55
2023-10-11T00:17:10.064Z,2.22
2023-10-11T00:20:20.984Z,3.72
2023-10-11T00:23:26.596Z,2.03
2023-10-11T00:26:29.753Z,2.35
2023-10-11T00:29:40.295Z,1.88
2023-10-11T00:32:44.058Z,1.75
2023-10-11T00:35:49.100Z,3.05
2023-10-11T00:38:53.404Z,2.03
2023-10-11T00:41:57.366Z,1.55
2023-10-11T00:45:02.164Z,2.40
2023-10-11T00:48:08.032Z,3.08
2023-10-11T00:51:11.625Z,3.90
2023-10-11T00:54:18.086Z,2.08
2023-10-11T00:57:22.270Z,3.45
2023-10-11T01:00:25.278Z,1.65
2023-10-11T01:03:32.720Z,2.03
2023-10-11T01:06:35.952Z,2.17
2023-10-11T01:09:42.014Z,1.73
2023-10-11T01:12:44.866Z,2.95
2023-10-11T01:15:48.838Z,2.28
2023-10-11T01:18:51.716Z,3.35
2023-10-11T01:22:00.264Z,1.65
2023-10-11T01:25:05.008Z,1.45
2023-10-11T01:28:08.835Z,1.30
2023-10-11T01:31:11.748Z,1.73
2023-10-11T01:34:16.738Z,1.95
2023-10-11T01:37:21.251Z,1.88
2023-10-11T01:40:25.648Z,2.60
2023-10-11T01:43:29.383Z,1.75
2023-10-11T01:46:36.557Z,1.30
2023-10-11T01:49:40.842Z,1.58
2023-10-11T01:52:48.970Z,1.63
2023-10-11T01:55:55.468Z,3.33
2023-10-11T01:59:01.919Z,1.38
2023-10-11T02:02:05.047Z,2.17
2023-10-11T02:05:11.993Z,2.55
2023-10-11T02:08:18.239Z,1.48
2023-10-11T02:11:24.831Z,1.30
2023-10-11T02:14:29.306Z,3.50
2023-10-11T02:17:34.886Z,1.50
2023-10-11T02:20:45.274Z,2.20
2023-10-11T02:23:49.525Z,3.33
2023-10-11T02:26:52.403Z,2.95
2023-10-11T02:29:55.336Z,1.55
2023-10-11T02:33:00.472Z,1.98
2023-10-11T02:36:09.765Z,2.50
2023-10-11T02:39:21.306Z,1.92
2023-10-11T02:42:24.765Z,2.63
2023-10-11T02:45:27.648Z,1.67
2023-10-11T02:48:30.868Z,4.03
2023-10-11T02:51:34.772Z,1.27
2023-10-11T02:54:41.762Z,1.10
2023-10-11T02:57:45.461Z,2.78
2023-10-11T03:00:49.788Z,2.70
2023-10-11T03:03:54.124Z,1.73
2023-10-11T03:07:01.549Z,2.17
2023-10-11T03:10:15.047Z,1.70
2023-10-11T03:13:20.817Z,2.25
2023-10-11T03:16:24.979Z,2.30
2023-10-11T03:19:27.806Z,1.40
2023-10-11T03:22:33.082Z,1.67
2023-10-11T03:25:39.108Z,2.53
2023-10-11T03:28:42.469Z,1.33
2023-10-11T03:31:45.666Z,1.30
2023-10-11T03:34:48.635Z,2.47
2023-10-11T03:37:59.403Z,1.88
2023-10-11T03:41:16.377Z,2.90
2023-10-11T03:44:21.390Z,1.83
2023-10-11T03:47:25.868Z,2.10
2023-10-11T03:50:35.411Z,2.00
2023-10-11T03:53:40.636Z,1.67
2023-10-11T03:56:52.101Z,1.83
2023-10-11T03:59:59.301Z,1.52
2023-10-11T04:03:06.497Z,1.45
2023-10-11T04:06:16.133Z,2.33
2023-10-11T04:09:37.977Z,2.15
2023-10-11T04:12:43.523Z,2.90
2023-10-11T04:15:50.530Z,1.27
2023-10-11T04:18:53.856Z,1.15
2023-10-11T04:21:57.350Z,1.80
2023-10-11T04:25:07.976Z,1.45
2023-10-11T04:28:13.669Z,1.50
2023-10-11T04:31:29.762Z,1.60
2023-10-11T04:34:33.856Z,1.30
2023-10-11T04:37:45.184Z,1.23
2023-10-11T04:40:52.723Z,1.30
2023-10-11T04:44:06.011Z,1.20
2023-10-11T04:47:08.824Z,4.97
2023-10-11T04:50:12.795Z,6.80
2023-10-11T04:53:19.684Z,7.78
2023-10-11T04:56:40.383Z,2.45
2023-10-11T04:59:47.817Z,2.40
2023-10-11T05:02:59.553Z,1.70
2023-10-11T05:06:14.057Z,4.22
2023-10-11T05:09:23.137Z,1.98
2023-10-11T05:12:26.135Z,3.35
2023-10-11T05:15:35.742Z,5.38
2023-10-11T05:18:39.384Z,6.97
2023-10-11T05:21:46.452Z,2.45
2023-10-11T05:25:13.570Z,7.30
2023-10-11T05:28:28.840Z,3.25
2023-10-11T05:31:45.929Z,3.53
2023-10-11T05:34:52.045Z,2.83
2023-10-11T05:38:13.112Z,6.22
2023-10-11T05:41:33.978Z,2.95
2023-10-11T05:44:54.376Z,5.53
2023-10-11T05:48:16.557Z,4.07
2023-10-11T05:51:20.561Z,5.35
2023-10-11T05:54:23.745Z,7.28
2023-10-11T05:57:29.283Z,6.22
2023-10-11T06:00:36.077Z,4.88
2023-10-11T06:03:40.333Z,5.70
2023-10-11T06:06:43.931Z,6.32
2023-10-11T06:09:48.050Z,3.72
2023-10-11T06:12:50.897Z,5.90
2023-10-11T06:16:01.388Z,6.38
2023-10-11T06:19:18.683Z,3.05
2023-10-11T06:22:23.715Z,4.22
2023-10-11T06:25:50.803Z,4.68
2023-10-11T06:29:04.052Z,5.55
2023-10-11T06:32:20.060Z,3.13
2023-10-11T06:35:25.893Z,3.65
2023-10-11T06:38:38.748Z,3.20
2023-10-11T06:41:47.301Z,9.15
2023-10-11T06:44:51.199Z,3.03
2023-10-11T06:47:54.235Z,6.15
2023-10-11T06:51:01.181Z,7.13
2023-10-11T06:54:04.402Z,8.68
2023-10-11T06:57:08.473Z,6.20
2023-10-11T07:00:22.572Z,7.57
2023-10-11T07:03:29.452Z,7.85
2023-10-11T07:06:36.437Z,12.05
2023-10-11T07:09:41.018Z,10.40
2023-10-11T07:12:43.864Z,9.18
2023-10-11T07:15:48.135Z,7.75
2023-10-11T07:18:55.580Z,9.15
2023-10-11T07:22:04.201Z,9.38
2023-10-11T07:25:38.019Z,6.57
2023-10-11T07:28:44.718Z,6.47
2023-10-11T07:31:54.300Z,8.48
2023-10-11T07:34:57.662Z,9.90
2023-10-11T07:38:02.361Z,9.20
2023-10-11T07:41:06.895Z,7.65
2023-10-11T07:44:10.512Z,6.22
2023-10-11T07:47:17.466Z,5.50
2023-10-11T07:50:24.130Z,7.43
2023-10-11T07:53:28.692Z,6.35
2023-10-11T07:56:34.491Z,7.40
2023-10-11T07:59:40.842Z,7.53
2023-10-11T08:02:44.040Z,6.90
2023-10-11T08:05:47.588Z,8.52
2023-10-11T08:08:52.187Z,6.60
2023-10-11T08:11:57.749Z,9.55
2023-10-11T08:15:06.461Z,7.32
2023-10-11T08:18:09.956Z,8.90
2023-10-11T08:21:13.228Z,6.60
2023-10-11T08:24:17.754Z,7.40
2023-10-11T08:27:29.437Z,5.75
2023-10-11T08:30:33.168Z,6.25
2023-10-11T08:33:36.006Z,5.95
2023-10-11T08:36:38.918Z,6.40
2023-10-11T08:39:45.595Z,7.25
2023-10-11T08:42:50.624Z,4.22
2023-10-11T08:46:02.201Z,7.35
2023-10-11T08:49:06.038Z,6.75
2023-10-11T08:52:11.442Z,5.97
2023-10-11T08:55:20.538Z,12.25
2023-10-11T08:58:31.441Z,5.80
2023-10-11T09:01:37.828Z,6.50
2023-10-11T09:04:57.142Z,6.82
2023-10-11T09:08:03.324Z,7.53
2023-10-11T09:11:13.879Z,5.93
2023-10-11T09:14:24.009Z,6.43
2023-10-11T09:17:28.231Z,7.78
2023-10-11T09:20:41.625Z,6.53
2023-10-11T09:23:47.874Z,7.32
2023-10-11T09:27:13.883Z,8.73
2023-10-11T09:30:23.833Z,4.97
2023-10-11T09:33:36.721Z,4.95
2023-10-11T09:36:41.329Z,8.68
2023-10-11T09:39:44.827Z,8.90
2023-10-11T09:42:51.274Z,6.13
2023-10-11T09:45:55.838Z,11.05
2023-10-11T09:49:01.177Z,6.72
2023-10-11T09:52:08.684Z,6.90
2023-10-11T09:55:19.043Z,6.95
2023-10-11T09:58:33.485Z,4.75
2023-10-11T10:01:43.979Z,7.65
2023-10-11T10:04:56.680Z,6.72
2023-10-11T10:08:15.467Z,4.05
2023-10-11T10:11:20.782Z,5.50
2023-10-11T10:14:25.293Z,4.72
2023-10-11T10:17:29.653Z,7.97
2023-10-11T10:20:46.468Z,5.15
2023-10-11T10:23:52.735Z,6.18
2023-10-11T10:26:56.364Z,4.35
2023-10-11T10:30:01.269Z,6.80
2023-10-11T10:33:21.428Z,6.15
2023-10-11T10:36:41.901Z,10.70
2023-10-11T10:40:19.211Z,6.55
2023-10-11T10:43:23.164Z,7.95
2023-10-11T10:46:27.326Z,4.80
2023-10-11T10:49:42.300Z,9.77
2023-10-11T10:52:45.429Z,7.47
2023-10-11T10:55:48.225Z,6.80
2023-10-11T10:58:51.091Z,4.32
2023-10-11T11:01:55.230Z,7.95
2023-10-11T11:05:00.421Z,11.35
2023-10-11T11:08:17.261Z,6.90
2023-10-11T11:11:28.755Z,4.35
2023-10-11T11:14:31.612Z,4.18
2023-10-11T11:17:50.487Z,3.97
2023-10-11T11:20:53.938Z,4.95
2023-10-11T11:23:56.740Z,6.10
2023-10-11T11:26:58.586Z,4.43
2023-10-11T11:30:18.275Z,4.78
2023-10-11T11:33:30.117Z,3.88
2023-10-11T11:36:36.066Z,6.15
2023-10-11T11:39:41.035Z,5.38
2023-10-11T11:42:48.603Z,3.65
2023-10-11T11:45:57.870Z,3.67
2023-10-11T11:49:10.240Z,4.03
2023-10-11T11:52:18.105Z,5.38
2023-10-11T11:55:21.826Z,7.50
2023-10-11T11:58:24.689Z,5.85
2023-10-11T12:01:27.887Z,5.22
2023-10-11T12:04:32.994Z,10.02
2023-10-11T12:07:37.110Z,9.95
2023-10-11T12:10:48.352Z,12.07
2023-10-11T12:13:51.177Z,10.88
2023-10-11T12:16:56.178Z,6.97
2023-10-11T12:20:00.666Z,7.85
2023-10-11T12:23:09.723Z,8.27
2023-10-11T12:26:12.617Z,7.43
2023-10-11T12:29:15.619Z,7.32
2023-10-11T12:32:18.797Z,8.98
2023-10-11T12:35:24.503Z,7.25
2023-10-11T12:38:27.513Z,6.75
2023-10-11T12:41:30.967Z,7.88
2023-10-11T12:44:33.788Z,9.30
2023-10-11T12:47:36.662Z,7.43
2023-10-11T12:50:41.211Z,6.38
2023-10-11T12:53:44.427Z,6.35
2023-10-11T12:56:47.626Z,8.43
2023-10-11T12:59:50.426Z,6.10
2023-10-11T13:02:53.268Z,7.90
2023-10-11T13:05:58.185Z,9.43
2023-10-11T13:09:01.089Z,11.73
2023-10-11T13:12:05.166Z,6.18
2023-10-11T13:15:09.454Z,9.48
2023-10-11T13:18:12.261Z,9.15
2023-10-11T13:21:18.096Z,11.90
2023-10-11T13:24:23.848Z,9.45
2023-10-11T13:27:27.243Z,13.18
2023-10-11T13:30:35.974Z,9.30
2023-10-11T13:33:39.734Z,15.07
2023-10-11T13:36:44.085Z,11.68
2023-10-11T13:39:48.060Z,11.90
2023-10-11T13:42:52.335Z,10.57
2023-10-11T13:46:02.699Z,7.50
2023-10-11T13:49:25.450Z,11.07
2023-10-11T13:52:29.789Z,8.25
2023-10-11T13:55:41.081Z,11.43
2023-10-11T13:58:46.944Z,12.43
2023-10-11T14:02:00.436Z,11.05
2023-10-11T14:05:16.377Z,17.00
2023-10-11T14:08:25.602Z,10.82
2023-10-11T14:11:31.247Z,15.27
2023-10-11T14:14:40.807Z,14.05
2023-10-11T14:17:45.201Z,10.07
2023-10-11T14:20:50.971Z,13.60
2023-10-11T14:23:55.254Z,8.43
2023-10-11T14:26:58.084Z,11.52
2023-10-11T14:30:01.905Z,18.05
2023-10-11T14:33:10.068Z,11.45
2023-10-11T14:36:13.147Z,14.60
2023-10-11T14:39:20.435Z,8.70
2023-10-11T14:42:23.590Z,12.85
2023-10-11T14:45:27.409Z,12.77
2023-10-11T14:48:30.327Z,11.30
2023-10-11T14:51:33.251Z,10.82
2023-10-11T14:54:40.670Z,11.73
2023-10-11T14:57:44.276Z,9.48
2023-10-11T15:00:47.685Z,10.68
2023-10-11T15:03:50.916Z,12.25
2023-10-11T15:06:53.755Z,13.95
2023-10-11T15:09:58.038Z,10.30
2023-10-11T15:13:02.238Z,13.02
2023-10-11T15:16:06.164Z,15.48
2023-10-11T15:19:10.857Z,14.30
2023-10-11T15:22:16.182Z,12.05
2023-10-11T15:25:20.339Z,8.45
2023-10-11T15:28:23.886Z,13.30
2023-10-11T15:31:31.910Z,10.60
2023-10-11T15:34:35.325Z,12.50
2023-10-11T15:37:38.123Z,13.05
2023-10-11T15:40:42.238Z,14.35
2023-10-11T15:43:45.054Z,15.65
2023-10-11T15:46:47.895Z,12.93
2023-10-11T15:49:58.531Z,13.07
2023-10-11T15:53:01.888Z,13.52
2023-10-11T15:56:07.734Z,11.60
2023-10-11T15:59:10.586Z,17.73
2023-10-11T16:02:13.458Z,12.80
2023-10-11T16:05:18.311Z,20.90
2023-10-11T16:08:21.130Z,14.75
2023-10-11T16:11:25.663Z,10.13
2023-10-11T16:14:28.454Z,10.73
2023-10-11T16:17:31.255Z,12.88
2023-10-11T16:20:34.097Z,8.82
2023-10-11T16:23:39.904Z,12.02
2023-10-11T16:26:44.134Z,11.40
2023-10-11T16:29:46.965Z,6.97
2023-10-11T16:32:55.303Z,11.35
2023-10-11T16:36:00.514Z,11.68
2023-10-11T16:39:03.871Z,9.00
2023-10-11T16:42:08.216Z,11.25
2023-10-11T16:45:15.040Z,10.65
2023-10-11T16:48:19.938Z,11.07
2023-10-11T16:51:22.900Z,7.28
2023-10-11T16:54:26.533Z,12.55
2023-10-11T16:57:30.815Z,11.77
2023-10-11T17:00:34.786Z,9.43
2023-10-11T17:03:38.107Z,12.10
2023-10-11T17:06:41.064Z,12.32
2023-10-11T17:09:43.931Z,11.70
2023-10-11T17:12:48.291Z,9.40
2023-10-11T17:15:51.155Z,11.88
2023-10-11T17:18:53.990Z,8.98
2023-10-11T17:21:57.051Z,9.15
2023-10-11T17:25:00.210Z,7.57
2023-10-11T17:28:05.653Z,9.18
2023-10-11T17:31:09.457Z,9.02
2023-10-11T17:34:16.203Z,7.63
2023-10-11T17:37:20.182Z,7.53
2023-10-11T17:40:28.314Z,13.05
2023-10-11T17:43:32.533Z,11.20
2023-10-11T17:46:35.416Z,9.15
2023-10-11T17:49:38.275Z,17.00
2023-10-11T17:52:42.057Z,13.25
2023-10-11T17:55:44.879Z,14.70
2023-10-11T17:58:49.477Z,13.82
2023-10-11T18:01:52.696Z,11.38
2023-10-11T18:04:56.453Z,14.13
2023-10-11T18:07:59.690Z,10.40
2023-10-11T18:11:02.604Z,12.20
2023-10-11T18:14:08.082Z,11.23
2023-10-11T18:17:13.123Z,14.45
2023-10-11T18:20:16.810Z,18.73
2023-10-11T18:23:22.345Z,18.55
2023-10-11T18:26:25.181Z,20.42
2023-10-11T18:29:29.354Z,16.52
2023-10-11T18:32:37.146Z,14.57
2023-10-11T18:35:41.654Z,15.23
2023-10-11T18:38:45.184Z,11.65
2023-10-11T18:41:48.029Z,17.20
2023-10-11T18:44:52.426Z,11.48
2023-10-11T18:47:56.761Z,13.63
2023-10-11T18:50:59.624Z,18.58
2023-10-11T18:54:02.574Z,14.10
2023-10-11T18:57:07.713Z,9.25
2023-10-11T19:00:13.741Z,10.27
2023-10-11T19:03:19.548Z,12.57
2023-10-11T19:06:25.095Z,12.60
2023-10-11T19:09:27.967Z,11.88
2023-10-11T19:12:33.898Z,11.43
2023-10-11T19:15:42.296Z,10.40
2023-10-11T19:18:46.022Z,10.18
2023-10-11T19:21:49.097Z,9.88
2023-10-11T19:24:52.035Z,10.95
2023-10-11T19:27:56.375Z,8.57
2023-10-11T19:31:00.755Z,9.75
2023-10-11T19:34:03.730Z,13.43
2023-10-11T19:37:08.854Z,8.93
2023-10-11T19:40:16.592Z,9.40
2023-10-11T19:43:19.833Z,12.57
2023-10-11T19:46:25.368Z,8.45
2023-10-11T19:49:28.347Z,8.48
2023-10-11T19:52:31.185Z,14.18
2023-10-11T19:55:34.009Z,13.18
2023-10-11T19:58:37.549Z,12.55
2023-10-11T20:01:43.239Z,8.13
2023-10-11T20:04:47.584Z,8.82
2023-10-11T20:07:50.503Z,11.20
2023-10-11T20:11:01.290Z,7.10
2023-10-11T20:14:04.486Z,4.97
2023-10-11T20:17:08.593Z,5.90
2023-10-11T20:20:13.563Z,6.82
2023-10-11T20:23:17.941Z,9.25
2023-10-11T20:26:23.364Z,7.53
2023-10-11T20:29:26.213Z,7.13
2023-10-11T20:32:32.324Z,6.60
2023-10-11T20:35:35.188Z,8.25
2023-10-11T20:38:39.975Z,7.07
2023-10-11T20:41:42.825Z,7.45
2023-10-11T20:44:45.648Z,8.43
2023-10-11T20:47:53.169Z,6.70
2023-10-11T20:50:56.023Z,8.05
2023-10-11T20:53:59.040Z,6.25
2023-10-11T20:57:03.093Z,8.10
2023-10-11T21:00:15.180Z,7.10
2023-10-11T21:03:21.191Z,7.25
2023-10-11T21:06:24.572Z,6.95
2023-10-11T21:09:31.538Z,6.47
2023-10-11T21:12:34.371Z,4.75
2023-10-11T21:15:38.151Z,6.18
2023-10-11T21:18:43.056Z,14.70
2023-10-11T21:21:48.796Z,8.57
2023-10-11T21:24:51.653Z,6.53
2023-10-11T21:27:54.559Z,5.70
2023-10-11T21:30:57.769Z,10.35
2023-10-11T21:34:02.390Z,9.32
2023-10-11T21:37:07.584Z,9.35
2023-10-11T21:40:14.833Z,6.53
2023-10-11T21:43:17.856Z,6.40
2023-10-11T21:46:21.011Z,7.20
2023-10-11T21:49:25.986Z,5.47
2023-10-11T21:52:28.826Z,12.43
2023-10-11T21:55:31.892Z,9.45
2023-10-11T21:58:34.689Z,8.43
2023-10-11T22:01:37.490Z,8.18
2023-10-11T22:04:41.658Z,6.45
2023-10-11T22:07:47.925Z,8.82
2023-10-11T22:10:51.116Z,6.75
2023-10-11T22:13:57.362Z,7.03
2023-10-11T22:17:00.668Z,6.55
2023-10-11T22:20:06.571Z,6.47
2023-10-11T22:23:09.354Z,8.73
2023-10-11T22:26:15.145Z,6.15
2023-10-11T22:29:19.322Z,4.35
2023-10-11T22:32:24.768Z,7.60
2023-10-11T22:35:31.652Z,7.63
2023-10-11T22:38:34.452Z,4.18
2023-10-11T22:41:37.241Z,6.57
2023-10-11T22:44:40.348Z,7.75
2023-10-11T22:47:43.166Z,4.75
2023-10-11T22:50:47.424Z,7.40
2023-10-11T22:54:01.148Z,6.35
2023-10-11T22:57:04.617Z,5.95
2023-10-11T23:00:18.990Z,5.82
2023-10-11T23:03:22.304Z,6.13
2023-10-11T23:06:27.422Z,5.35
2023-10-11T23:09:34.165Z,4.47
2023-10-11T23:12:47.274Z,6.03
2023-10-11T23:15:55.283Z,7.43
2023-10-11T23:19:20.215Z,7.07
2023-10-11T23:22:24.895Z,5.53
2023-10-11T23:25:28.061Z,6.88
2023-10-11T23:28:30.829Z,6.72
2023-10-11T23:31:38.327Z,3.28
2023-10-11T23:34:41.561Z,5.03
2023-10-11T23:37:49.789Z,4.28
2023-10-11T23:40:55.838Z,4.68
2023-10-11T23:44:01.064Z,4.30
2023-10-11T23:47:11.336Z,4.28
2023-10-11T23:50:21.454Z,5.15
2023-10-11T23:53:31.415Z,5.95
2023-10-11T23:56:34.205Z,4.13
2023-10-11T23:59:38.135Z,3.90
